AAL835 KMIA-KORD
Flight info
| Callsign | AAL835 |
|---|---|
| Flight time | 2h 43m |
| Altitude | 32000 |
| Route | HURCN4 KPASA Q118 KAILL/N0474F330 Q118 VOSTK/N0472F340 Q118 HEVAN BONNT VEECK5 |
| Aircraft | B738/M-SDE2E3FGHIRWXY/LB1 |
Departure
| Time | 2026-05-06 20:40 |
|---|---|
| Airport | Miami International Airport (KMIA) |
Arrival
| Time | 2026-05-06 23:23 |
|---|---|
| Airport | Chicago O'Hare International Airport (KORD) |
| Time | Latitude | Longitude | Altitude | Speed | Heading |
|---|---|---|---|---|---|
| 2026-05-06 20:12 | 25.79825 | -80.28215 | 13 ft | 0 kts | 178° |
| 2026-05-06 20:24 | 25.79829 | -80.28215 | 13 ft | 2 kts | 178° |
| 2026-05-06 20:24 | 25.79847 | -80.28215 | 14 ft | 3 kts | 187° |
| 2026-05-06 20:24 | 25.79867 | -80.28211 | 13 ft | 3 kts | 201° |
| 2026-05-06 20:24 | 25.79884 | -80.28201 | 14 ft | 3 kts | 226° |
| 2026-05-06 20:25 | 25.79893 | -80.28186 | 15 ft | 2 kts | 264° |
| 2026-05-06 20:25 | 25.79894 | -80.28183 | 14 ft | 1 kts | 268° |
| 2026-05-06 20:29 | 25.79893 | -80.28197 | 13 ft | 6 kts | 267° |
| 2026-05-06 20:30 | 25.79893 | -80.28279 | 14 ft | 13 kts | 285° |
| 2026-05-06 20:30 | 25.80031 | -80.28356 | 14 ft | 12 kts | 275° |
| 2026-05-06 20:30 | 25.80030 | -80.28450 | 14 ft | 13 kts | 266° |
| 2026-05-06 20:31 | 25.80027 | -80.28551 | 16 ft | 13 kts | 268° |
| 2026-05-06 20:31 | 25.80023 | -80.28652 | 20 ft | 13 kts | 268° |
| 2026-05-06 20:31 | 25.80019 | -80.28751 | 22 ft | 14 kts | 268° |
| 2026-05-06 20:31 | 25.80014 | -80.28868 | 20 ft | 17 kts | 267° |
| 2026-05-06 20:32 | 25.80007 | -80.29007 | 19 ft | 19 kts | 268° |
| 2026-05-06 20:32 | 25.80001 | -80.29151 | 21 ft | 18 kts | 268° |
| 2026-05-06 20:32 | 25.79996 | -80.29290 | 19 ft | 18 kts | 267° |
| 2026-05-06 20:32 | 25.79990 | -80.29424 | 14 ft | 17 kts | 267° |
| 2026-05-06 20:33 | 25.79985 | -80.29554 | 12 ft | 16 kts | 268° |
| 2026-05-06 20:33 | 25.79981 | -80.29678 | 13 ft | 16 kts | 266° |
| 2026-05-06 20:33 | 25.79975 | -80.29784 | 12 ft | 8 kts | 267° |
| 2026-05-06 20:33 | 25.79973 | -80.29846 | 11 ft | 8 kts | 268° |
| 2026-05-06 20:34 | 25.79971 | -80.29890 | 11 ft | 0 kts | 267° |
| 2026-05-06 20:35 | 25.79970 | -80.29908 | 10 ft | 6 kts | 267° |
| 2026-05-06 20:35 | 25.79973 | -80.29946 | 10 ft | 0 kts | 282° |
| 2026-05-06 20:36 | 25.79975 | -80.29953 | 10 ft | 2 kts | 282° |
| 2026-05-06 20:36 | 25.79979 | -80.29977 | 10 ft | 4 kts | 282° |
| 2026-05-06 20:37 | 25.79985 | -80.30004 | 10 ft | 4 kts | 288° |
| 2026-05-06 20:37 | 25.79998 | -80.30048 | 11 ft | 10 kts | 286° |
| 2026-05-06 20:37 | 25.80044 | -80.30116 | 14 ft | 12 kts | 359° |
| 2026-05-06 20:37 | 25.80073 | -80.30083 | 13 ft | 5 kts | 79° |
| 2026-05-06 20:38 | 25.80073 | -80.30072 | 12 ft | 0 kts | 86° |
| 2026-05-06 20:38 | 25.80073 | -80.30071 | 14 ft | 0 kts | 86° |
| 2026-05-06 20:39 | 25.80076 | -80.30014 | 11 ft | 32 kts | 87° |
| 2026-05-06 20:39 | 25.80097 | -80.29502 | 13 ft | 99 kts | 88° |
| 2026-05-06 20:39 | 25.80130 | -80.28527 | 18 ft | 153 kts | 89° |
| 2026-05-06 20:39 | 25.80175 | -80.27228 | 334 ft | 178 kts | 87° |
| 2026-05-06 20:40 | 25.80269 | -80.25886 | 1222 ft | 171 kts | 88° |
| 2026-05-06 20:40 | 25.80333 | -80.24553 | 1859 ft | 181 kts | 88° |
| 2026-05-06 20:40 | 25.80404 | -80.23040 | 2076 ft | 210 kts | 88° |
| 2026-05-06 20:40 | 25.80472 | -80.21360 | 2381 ft | 225 kts | 88° |
| 2026-05-06 20:41 | 25.80535 | -80.19544 | 2639 ft | 246 kts | 87° |
| 2026-05-06 20:41 | 25.80984 | -80.17644 | 2964 ft | 264 kts | 59° |
| 2026-05-06 20:41 | 25.82316 | -80.16237 | 3630 ft | 269 kts | 24° |
| 2026-05-06 20:41 | 25.84135 | -80.15819 | 4422 ft | 270 kts | 1° |
| 2026-05-06 20:42 | 25.86038 | -80.15776 | 5136 ft | 277 kts | 0° |
| 2026-05-06 20:42 | 25.87967 | -80.15738 | 5931 ft | 277 kts | 1° |
| 2026-05-06 20:42 | 25.89895 | -80.15818 | 6696 ft | 279 kts | 347° |
| 2026-05-06 20:42 | 25.91746 | -80.16461 | 7456 ft | 278 kts | 341° |
| 2026-05-06 20:43 | 25.93553 | -80.17138 | 8210 ft | 278 kts | 342° |
| 2026-05-06 20:43 | 25.95407 | -80.17805 | 8918 ft | 280 kts | 343° |
| 2026-05-06 20:43 | 25.97254 | -80.18484 | 9726 ft | 280 kts | 338° |
| 2026-05-06 20:43 | 25.98838 | -80.19763 | 10273 ft | 291 kts | 310° |
| 2026-05-06 20:44 | 25.99923 | -80.21760 | 10459 ft | 315 kts | 296° |
| 2026-05-06 20:44 | 26.00798 | -80.24079 | 10615 ft | 336 kts | 294° |
| 2026-05-06 20:44 | 26.01670 | -80.26564 | 10769 ft | 355 kts | 293° |
| 2026-05-06 20:44 | 26.02582 | -80.29192 | 10879 ft | 372 kts | 293° |
| 2026-05-06 20:45 | 26.03540 | -80.31926 | 10991 ft | 388 kts | 293° |
| 2026-05-06 20:45 | 26.04546 | -80.34767 | 11162 ft | 399 kts | 294° |
| 2026-05-06 20:45 | 26.05567 | -80.37626 | 11531 ft | 404 kts | 294° |
| 2026-05-06 20:45 | 26.06610 | -80.40537 | 12006 ft | 406 kts | 294° |
| 2026-05-06 20:46 | 26.07662 | -80.43460 | 12460 ft | 408 kts | 294° |
| 2026-05-06 20:46 | 26.08732 | -80.46435 | 12894 ft | 411 kts | 294° |
| 2026-05-06 20:46 | 26.09784 | -80.49358 | 13303 ft | 414 kts | 294° |
| 2026-05-06 20:46 | 26.10870 | -80.52380 | 13742 ft | 416 kts | 295° |
| 2026-05-06 20:47 | 26.11935 | -80.55336 | 14121 ft | 418 kts | 295° |
| 2026-05-06 20:47 | 26.13395 | -80.58096 | 14483 ft | 413 kts | 315° |
| 2026-05-06 20:47 | 26.15581 | -80.60132 | 14907 ft | 409 kts | 329° |
| 2026-05-06 20:47 | 26.18119 | -80.61542 | 15272 ft | 409 kts | 338° |
| 2026-05-06 20:48 | 26.20752 | -80.62767 | 15595 ft | 411 kts | 339° |
| 2026-05-06 20:48 | 26.23409 | -80.63980 | 15917 ft | 414 kts | 339° |
| 2026-05-06 20:48 | 26.26074 | -80.65212 | 16257 ft | 416 kts | 338° |
| 2026-05-06 20:48 | 26.28745 | -80.66468 | 16619 ft | 417 kts | 337° |
| 2026-05-06 20:49 | 26.31419 | -80.67743 | 16954 ft | 419 kts | 337° |
| 2026-05-06 20:49 | 26.34103 | -80.69030 | 17266 ft | 421 kts | 337° |
| 2026-05-06 20:49 | 26.36796 | -80.70324 | 17563 ft | 423 kts | 337° |
| 2026-05-06 20:49 | 26.39491 | -80.71677 | 17858 ft | 425 kts | 332° |
| 2026-05-06 20:50 | 26.41843 | -80.73674 | 18030 ft | 429 kts | 314° |
| 2026-05-06 20:50 | 26.43823 | -80.76173 | 18444 ft | 429 kts | 312° |
| 2026-05-06 20:50 | 26.45818 | -80.78669 | 18729 ft | 430 kts | 313° |
| 2026-05-06 20:50 | 26.47818 | -80.81110 | 18995 ft | 431 kts | 313° |
| 2026-05-06 20:51 | 26.49856 | -80.83573 | 19273 ft | 432 kts | 313° |
| 2026-05-06 20:51 | 26.51953 | -80.85971 | 19538 ft | 432 kts | 318° |
| 2026-05-06 20:51 | 26.54233 | -80.88156 | 19799 ft | 432 kts | 321° |
| 2026-05-06 20:51 | 26.56593 | -80.90243 | 20054 ft | 433 kts | 322° |
| 2026-05-06 20:52 | 26.58983 | -80.92316 | 20275 ft | 435 kts | 322° |
| 2026-05-06 20:52 | 26.61371 | -80.94402 | 20516 ft | 436 kts | 321° |
| 2026-05-06 20:52 | 26.63752 | -80.96511 | 20790 ft | 436 kts | 321° |
| 2026-05-06 20:52 | 26.66117 | -80.98632 | 21052 ft | 436 kts | 320° |
| 2026-05-06 20:53 | 26.68477 | -81.00769 | 21278 ft | 437 kts | 320° |
| 2026-05-06 20:53 | 26.70838 | -81.02917 | 21518 ft | 438 kts | 320° |
| 2026-05-06 20:53 | 26.73172 | -81.05046 | 21739 ft | 439 kts | 320° |
| 2026-05-06 20:53 | 26.75542 | -81.07210 | 21960 ft | 439 kts | 320° |
| 2026-05-06 20:54 | 26.77914 | -81.09377 | 22177 ft | 440 kts | 320° |
| 2026-05-06 20:54 | 26.80287 | -81.11545 | 22388 ft | 441 kts | 320° |
| 2026-05-06 20:54 | 26.82665 | -81.13718 | 22599 ft | 441 kts | 320° |
| 2026-05-06 20:54 | 26.85044 | -81.15893 | 22817 ft | 442 kts | 320° |
| 2026-05-06 20:55 | 26.87429 | -81.18074 | 23001 ft | 442 kts | 320° |
| 2026-05-06 20:55 | 26.89812 | -81.20255 | 23190 ft | 443 kts | 320° |
| 2026-05-06 20:55 | 26.92195 | -81.22438 | 23427 ft | 443 kts | 319° |
| 2026-05-06 20:55 | 26.94578 | -81.24621 | 23643 ft | 442 kts | 319° |
| 2026-05-06 20:56 | 26.96934 | -81.26781 | 23777 ft | 443 kts | 319° |
| 2026-05-06 20:56 | 26.99322 | -81.28971 | 23884 ft | 445 kts | 319° |
| 2026-05-06 20:56 | 27.01761 | -81.31209 | 23944 ft | 448 kts | 319° |
| 2026-05-06 20:56 | 27.04177 | -81.33421 | 24072 ft | 449 kts | 320° |
| 2026-05-06 20:57 | 27.06722 | -81.35375 | 24209 ft | 451 kts | 327° |
| 2026-05-06 20:57 | 27.09464 | -81.37091 | 24353 ft | 453 kts | 329° |
| 2026-05-06 20:57 | 27.12246 | -81.38764 | 24475 ft | 454 kts | 329° |
| 2026-05-06 20:57 | 27.15023 | -81.40444 | 24591 ft | 454 kts | 329° |
| 2026-05-06 20:58 | 27.17801 | -81.42158 | 24713 ft | 455 kts | 328° |
| 2026-05-06 20:58 | 27.20563 | -81.43894 | 24836 ft | 456 kts | 328° |
| 2026-05-06 20:58 | 27.23324 | -81.45648 | 24980 ft | 456 kts | 327° |
| 2026-05-06 20:58 | 27.26081 | -81.47407 | 25122 ft | 456 kts | 327° |
| 2026-05-06 20:59 | 27.28842 | -81.49169 | 25230 ft | 457 kts | 327° |
| 2026-05-06 20:59 | 27.31607 | -81.50933 | 25319 ft | 458 kts | 327° |
| 2026-05-06 20:59 | 27.34393 | -81.52678 | 25466 ft | 459 kts | 330° |
| 2026-05-06 20:59 | 27.37295 | -81.54186 | 25649 ft | 460 kts | 334° |
| 2026-05-06 21:00 | 27.40262 | -81.55528 | 25856 ft | 459 kts | 335° |
| 2026-05-06 21:00 | 27.43251 | -81.56813 | 26047 ft | 459 kts | 335° |
| 2026-05-06 21:00 | 27.46233 | -81.58093 | 26207 ft | 459 kts | 335° |
| 2026-05-06 21:00 | 27.49203 | -81.59389 | 26387 ft | 458 kts | 335° |
| 2026-05-06 21:01 | 27.52172 | -81.60710 | 26586 ft | 458 kts | 334° |
| 2026-05-06 21:01 | 27.55136 | -81.62049 | 26772 ft | 457 kts | 334° |
| 2026-05-06 21:01 | 27.58081 | -81.63391 | 26970 ft | 457 kts | 334° |
| 2026-05-06 21:01 | 27.61023 | -81.64739 | 27190 ft | 456 kts | 334° |
| 2026-05-06 21:02 | 27.63957 | -81.66085 | 27392 ft | 456 kts | 334° |
| 2026-05-06 21:02 | 27.66898 | -81.67435 | 27524 ft | 457 kts | 334° |
| 2026-05-06 21:02 | 27.69847 | -81.68790 | 27710 ft | 457 kts | 334° |
| 2026-05-06 21:02 | 27.72785 | -81.70138 | 27961 ft | 456 kts | 334° |
| 2026-05-06 21:03 | 27.75716 | -81.71484 | 28225 ft | 454 kts | 334° |
| 2026-05-06 21:03 | 27.78642 | -81.72827 | 28452 ft | 454 kts | 334° |
| 2026-05-06 21:03 | 27.81569 | -81.74173 | 28674 ft | 454 kts | 334° |
| 2026-05-06 21:03 | 27.84456 | -81.75500 | 28946 ft | 452 kts | 333° |
| 2026-05-06 21:04 | 27.87359 | -81.76835 | 29260 ft | 450 kts | 333° |
| 2026-05-06 21:04 | 27.90262 | -81.78172 | 29510 ft | 450 kts | 333° |
| 2026-05-06 21:04 | 27.93159 | -81.79507 | 29732 ft | 450 kts | 333° |
| 2026-05-06 21:04 | 27.96056 | -81.80843 | 29989 ft | 449 kts | 333° |
| 2026-05-06 21:05 | 27.98947 | -81.82176 | 30231 ft | 448 kts | 333° |
| 2026-05-06 21:05 | 28.01833 | -81.83507 | 30494 ft | 447 kts | 333° |
| 2026-05-06 21:05 | 28.04707 | -81.84835 | 30749 ft | 445 kts | 333° |
| 2026-05-06 21:05 | 28.07571 | -81.86158 | 30991 ft | 444 kts | 333° |
| 2026-05-06 21:06 | 28.10430 | -81.87480 | 31204 ft | 444 kts | 333° |
| 2026-05-06 21:06 | 28.13286 | -81.88801 | 31448 ft | 443 kts | 333° |
| 2026-05-06 21:06 | 28.16129 | -81.90117 | 31765 ft | 440 kts | 333° |
| 2026-05-06 21:06 | 28.18867 | -81.91600 | 32051 ft | 432 kts | 324° |
| 2026-05-06 21:07 | 28.21344 | -81.93499 | 32292 ft | 429 kts | 321° |
| 2026-05-06 21:07 | 28.23766 | -81.95481 | 32500 ft | 429 kts | 320° |
| 2026-05-06 21:07 | 28.26173 | -81.97467 | 32727 ft | 428 kts | 320° |
| 2026-05-06 21:07 | 28.28592 | -81.99441 | 32996 ft | 427 kts | 321° |
| 2026-05-06 21:08 | 28.31010 | -82.01387 | 33265 ft | 426 kts | 321° |
| 2026-05-06 21:08 | 28.33431 | -82.03317 | 33509 ft | 425 kts | 321° |
| 2026-05-06 21:08 | 28.35854 | -82.05239 | 33736 ft | 424 kts | 321° |
| 2026-05-06 21:08 | 28.38268 | -82.07152 | 33974 ft | 423 kts | 321° |
| 2026-05-06 21:09 | 28.40678 | -82.09062 | 34198 ft | 422 kts | 321° |
| 2026-05-06 21:09 | 28.43080 | -82.10968 | 34376 ft | 421 kts | 321° |
| 2026-05-06 21:09 | 28.45481 | -82.12874 | 34598 ft | 420 kts | 321° |
| 2026-05-06 21:09 | 28.47871 | -82.14773 | 34843 ft | 418 kts | 321° |
| 2026-05-06 21:10 | 28.50220 | -82.16641 | 35022 ft | 417 kts | 321° |
| 2026-05-06 21:10 | 28.52600 | -82.18534 | 35175 ft | 418 kts | 321° |
| 2026-05-06 21:10 | 28.54981 | -82.20430 | 35319 ft | 418 kts | 321° |
| 2026-05-06 21:10 | 28.57363 | -82.22327 | 35489 ft | 417 kts | 321° |
| 2026-05-06 21:11 | 28.59734 | -82.24218 | 35680 ft | 416 kts | 321° |
| 2026-05-06 21:11 | 28.62108 | -82.26111 | 35846 ft | 416 kts | 321° |
| 2026-05-06 21:11 | 28.64476 | -82.28001 | 35992 ft | 416 kts | 321° |
| 2026-05-06 21:12 | 28.68454 | -82.31179 | 36057 ft | 418 kts | 321° |
| 2026-05-06 21:12 | 28.73214 | -82.34985 | 36061 ft | 417 kts | 321° |
| 2026-05-06 21:13 | 28.78723 | -82.39394 | 36072 ft | 415 kts | 320° |
| 2026-05-06 21:13 | 28.82644 | -82.42537 | 36057 ft | 414 kts | 320° |
| 2026-05-06 21:14 | 28.87346 | -82.46310 | 36052 ft | 413 kts | 320° |
| 2026-05-06 21:14 | 28.92040 | -82.50080 | 36090 ft | 412 kts | 320° |
| 2026-05-06 21:15 | 28.96731 | -82.53852 | 36093 ft | 412 kts | 320° |
| 2026-05-06 21:15 | 29.01415 | -82.57624 | 36083 ft | 412 kts | 320° |
| 2026-05-06 21:16 | 29.06100 | -82.61400 | 36097 ft | 412 kts | 320° |
| 2026-05-06 21:16 | 29.10795 | -82.65188 | 36078 ft | 413 kts | 320° |
| 2026-05-06 21:17 | 29.15461 | -82.68957 | 36066 ft | 413 kts | 320° |
| 2026-05-06 21:17 | 29.20156 | -82.72754 | 36061 ft | 413 kts | 320° |
| 2026-05-06 21:18 | 29.24857 | -82.76560 | 36057 ft | 414 kts | 320° |
| 2026-05-06 21:18 | 29.29557 | -82.80370 | 36057 ft | 414 kts | 320° |
| 2026-05-06 21:19 | 29.34262 | -82.84188 | 36060 ft | 414 kts | 320° |
| 2026-05-06 21:19 | 29.38967 | -82.88012 | 36069 ft | 414 kts | 319° |
| 2026-05-06 21:20 | 29.43666 | -82.91834 | 36059 ft | 414 kts | 319° |
| 2026-05-06 21:20 | 29.48369 | -82.95664 | 36060 ft | 414 kts | 319° |
| 2026-05-06 21:21 | 29.53277 | -82.99178 | 36062 ft | 422 kts | 330° |
| 2026-05-06 21:21 | 29.58729 | -83.01736 | 36071 ft | 423 kts | 331° |
| 2026-05-06 21:22 | 29.64191 | -83.04287 | 36071 ft | 423 kts | 331° |
| 2026-05-06 21:22 | 29.69629 | -83.06858 | 36080 ft | 423 kts | 330° |
| 2026-05-06 21:23 | 29.75078 | -83.09449 | 36073 ft | 423 kts | 330° |
| 2026-05-06 21:23 | 29.80481 | -83.12025 | 36070 ft | 423 kts | 330° |
| 2026-05-06 21:24 | 29.85913 | -83.14618 | 36066 ft | 423 kts | 330° |
| 2026-05-06 21:24 | 29.91350 | -83.17215 | 36064 ft | 423 kts | 330° |
| 2026-05-06 21:25 | 29.96789 | -83.19817 | 36072 ft | 423 kts | 330° |
| 2026-05-06 21:25 | 30.02228 | -83.22422 | 36071 ft | 423 kts | 330° |
| 2026-05-06 21:26 | 30.07668 | -83.25031 | 36067 ft | 424 kts | 330° |
| 2026-05-06 21:26 | 30.13115 | -83.27645 | 36064 ft | 424 kts | 330° |
| 2026-05-06 21:27 | 30.18559 | -83.30262 | 36064 ft | 424 kts | 330° |
| 2026-05-06 21:27 | 30.24011 | -83.32885 | 36082 ft | 424 kts | 330° |
| 2026-05-06 21:28 | 30.29457 | -83.35513 | 36067 ft | 424 kts | 330° |
| 2026-05-06 21:28 | 30.34904 | -83.38147 | 36065 ft | 424 kts | 330° |
| 2026-05-06 21:29 | 30.40320 | -83.40769 | 36065 ft | 424 kts | 330° |
| 2026-05-06 21:29 | 30.45773 | -83.43411 | 36063 ft | 425 kts | 330° |
| 2026-05-06 21:30 | 30.51226 | -83.46057 | 36058 ft | 425 kts | 330° |
| 2026-05-06 21:30 | 30.56677 | -83.48705 | 36065 ft | 425 kts | 330° |
| 2026-05-06 21:31 | 30.62132 | -83.51359 | 36062 ft | 425 kts | 329° |
| 2026-05-06 21:31 | 30.67581 | -83.54012 | 36050 ft | 425 kts | 329° |
| 2026-05-06 21:32 | 30.73033 | -83.56670 | 36065 ft | 425 kts | 329° |
| 2026-05-06 21:32 | 30.81223 | -83.60671 | 36095 ft | 426 kts | 329° |
| 2026-05-06 21:33 | 30.86698 | -83.63349 | 36068 ft | 427 kts | 329° |
| 2026-05-06 21:33 | 30.92195 | -83.66041 | 36059 ft | 428 kts | 329° |
| 2026-05-06 21:34 | 30.97686 | -83.68733 | 36041 ft | 428 kts | 329° |
| 2026-05-06 21:34 | 31.03146 | -83.71413 | 36037 ft | 429 kts | 329° |
| 2026-05-06 21:35 | 31.08640 | -83.74114 | 36035 ft | 429 kts | 329° |
| 2026-05-06 21:35 | 31.14143 | -83.76822 | 36036 ft | 429 kts | 329° |
| 2026-05-06 21:36 | 31.19648 | -83.79535 | 36038 ft | 429 kts | 329° |
| 2026-05-06 21:36 | 31.25147 | -83.82249 | 36046 ft | 429 kts | 329° |
| 2026-05-06 21:37 | 31.30651 | -83.84968 | 36043 ft | 429 kts | 329° |
| 2026-05-06 21:37 | 31.36155 | -83.87691 | 36050 ft | 429 kts | 329° |
| 2026-05-06 21:38 | 31.41655 | -83.90416 | 36052 ft | 428 kts | 329° |
| 2026-05-06 21:38 | 31.47135 | -83.93133 | 36060 ft | 427 kts | 329° |
| 2026-05-06 21:39 | 31.52655 | -83.95743 | 36046 ft | 432 kts | 335° |
| 2026-05-06 21:39 | 31.58618 | -83.97205 | 36046 ft | 440 kts | 341° |
| 2026-05-06 21:40 | 31.64630 | -83.98479 | 36046 ft | 439 kts | 341° |
| 2026-05-06 21:40 | 31.70597 | -83.99770 | 36054 ft | 438 kts | 340° |
| 2026-05-06 21:41 | 31.76584 | -84.01093 | 36043 ft | 437 kts | 340° |
| 2026-05-06 21:41 | 31.82556 | -84.02424 | 36040 ft | 436 kts | 340° |
| 2026-05-06 21:42 | 31.88515 | -84.03756 | 36043 ft | 436 kts | 340° |
| 2026-05-06 21:42 | 31.94473 | -84.05089 | 36032 ft | 435 kts | 339° |
| 2026-05-06 21:43 | 32.00428 | -84.06422 | 35998 ft | 435 kts | 339° |
| 2026-05-06 21:43 | 32.06370 | -84.07754 | 35983 ft | 434 kts | 339° |
| 2026-05-06 21:44 | 32.12303 | -84.09086 | 35982 ft | 433 kts | 339° |
| 2026-05-06 21:44 | 32.18228 | -84.10417 | 35983 ft | 433 kts | 339° |
| 2026-05-06 21:45 | 32.24108 | -84.11741 | 35996 ft | 433 kts | 339° |
| 2026-05-06 21:45 | 32.30028 | -84.13076 | 35990 ft | 433 kts | 339° |
| 2026-05-06 21:46 | 32.35962 | -84.14415 | 36012 ft | 433 kts | 339° |
| 2026-05-06 21:46 | 32.41880 | -84.15752 | 36008 ft | 433 kts | 339° |
| 2026-05-06 21:47 | 32.47808 | -84.17094 | 36012 ft | 433 kts | 339° |
| 2026-05-06 21:47 | 32.53740 | -84.18438 | 36016 ft | 434 kts | 339° |
| 2026-05-06 21:48 | 32.59679 | -84.19786 | 36009 ft | 435 kts | 339° |
| 2026-05-06 21:48 | 32.65593 | -84.21129 | 36012 ft | 435 kts | 339° |
| 2026-05-06 21:49 | 32.71537 | -84.22481 | 36013 ft | 435 kts | 339° |
| 2026-05-06 21:49 | 32.77492 | -84.23837 | 36036 ft | 436 kts | 339° |
| 2026-05-06 21:50 | 32.83455 | -84.25198 | 36017 ft | 437 kts | 339° |
| 2026-05-06 21:50 | 32.89425 | -84.26562 | 36015 ft | 437 kts | 339° |
| 2026-05-06 21:51 | 32.95399 | -84.27928 | 36019 ft | 437 kts | 339° |
| 2026-05-06 21:51 | 33.01373 | -84.29295 | 36002 ft | 437 kts | 339° |
| 2026-05-06 21:52 | 33.07360 | -84.30669 | 36011 ft | 439 kts | 339° |
| 2026-05-06 21:52 | 33.13366 | -84.32049 | 36015 ft | 440 kts | 339° |
| 2026-05-06 21:53 | 33.19384 | -84.33432 | 36014 ft | 440 kts | 339° |
| 2026-05-06 21:53 | 33.25402 | -84.34818 | 36016 ft | 440 kts | 339° |
| 2026-05-06 21:54 | 33.31374 | -84.36195 | 36017 ft | 440 kts | 339° |
| 2026-05-06 21:54 | 33.37397 | -84.37586 | 35994 ft | 440 kts | 339° |
| 2026-05-06 21:55 | 33.43406 | -84.38976 | 35993 ft | 440 kts | 339° |
| 2026-05-06 21:55 | 33.49416 | -84.40368 | 35991 ft | 439 kts | 339° |
| 2026-05-06 21:56 | 33.55421 | -84.41761 | 35991 ft | 439 kts | 339° |
| 2026-05-06 21:56 | 33.61422 | -84.43156 | 35986 ft | 440 kts | 338° |
| 2026-05-06 21:57 | 33.66428 | -84.44295 | 35985 ft | 441 kts | 339° |
| 2026-05-06 21:57 | 33.72479 | -84.45609 | 35984 ft | 442 kts | 339° |
| 2026-05-06 21:58 | 33.78534 | -84.46923 | 35956 ft | 442 kts | 339° |
| 2026-05-06 21:58 | 33.84586 | -84.48247 | 35978 ft | 442 kts | 338° |
| 2026-05-06 21:59 | 33.90633 | -84.49576 | 35968 ft | 442 kts | 338° |
| 2026-05-06 21:59 | 33.96674 | -84.50905 | 35966 ft | 441 kts | 338° |
| 2026-05-06 22:00 | 34.02691 | -84.52228 | 35994 ft | 442 kts | 339° |
| 2026-05-06 22:00 | 34.08873 | -84.53079 | 35998 ft | 449 kts | 343° |
| 2026-05-06 22:01 | 34.15115 | -84.53655 | 36004 ft | 451 kts | 344° |
| 2026-05-06 22:01 | 34.21410 | -84.54248 | 35990 ft | 454 kts | 343° |
| 2026-05-06 22:02 | 34.27710 | -84.54887 | 35979 ft | 454 kts | 343° |
| 2026-05-06 22:02 | 34.33990 | -84.55541 | 35993 ft | 452 kts | 343° |
| 2026-05-06 22:03 | 34.40245 | -84.56199 | 36007 ft | 451 kts | 343° |
| 2026-05-06 22:03 | 34.46504 | -84.56860 | 35967 ft | 451 kts | 343° |
| 2026-05-06 22:04 | 34.52759 | -84.57523 | 35953 ft | 451 kts | 343° |
| 2026-05-06 22:04 | 34.59007 | -84.58182 | 35962 ft | 450 kts | 343° |
| 2026-05-06 22:05 | 34.65252 | -84.58843 | 35977 ft | 451 kts | 342° |
| 2026-05-06 22:05 | 34.71503 | -84.59507 | 35975 ft | 451 kts | 342° |
| 2026-05-06 22:06 | 34.77764 | -84.60172 | 35975 ft | 452 kts | 342° |
| 2026-05-06 22:06 | 34.84044 | -84.60841 | 35967 ft | 453 kts | 342° |
| 2026-05-06 22:07 | 34.90353 | -84.61515 | 35966 ft | 458 kts | 342° |
| 2026-05-06 22:07 | 34.96704 | -84.62196 | 35939 ft | 462 kts | 342° |
| 2026-05-06 22:08 | 35.03118 | -84.62869 | 35935 ft | 463 kts | 342° |
| 2026-05-06 22:08 | 35.09541 | -84.63549 | 35947 ft | 464 kts | 342° |
| 2026-05-06 22:09 | 35.15981 | -84.64238 | 35957 ft | 465 kts | 341° |
| 2026-05-06 22:09 | 35.22431 | -84.64940 | 35948 ft | 465 kts | 341° |
| 2026-05-06 22:10 | 35.28868 | -84.65633 | 35955 ft | 464 kts | 341° |
| 2026-05-06 22:10 | 35.35279 | -84.66321 | 35972 ft | 462 kts | 341° |
| 2026-05-06 22:11 | 35.41685 | -84.67012 | 35989 ft | 462 kts | 340° |
| 2026-05-06 22:11 | 35.48086 | -84.67705 | 35971 ft | 461 kts | 340° |
| 2026-05-06 22:12 | 35.54440 | -84.68392 | 35962 ft | 461 kts | 340° |
| 2026-05-06 22:12 | 35.60839 | -84.69086 | 35953 ft | 461 kts | 340° |
| 2026-05-06 22:13 | 35.67236 | -84.69780 | 35958 ft | 461 kts | 340° |
| 2026-05-06 22:13 | 35.73635 | -84.70475 | 35951 ft | 461 kts | 340° |
| 2026-05-06 22:14 | 35.80036 | -84.71172 | 35937 ft | 461 kts | 340° |
| 2026-05-06 22:14 | 35.86423 | -84.71868 | 35958 ft | 460 kts | 340° |
| 2026-05-06 22:15 | 35.92797 | -84.72573 | 35955 ft | 460 kts | 340° |
| 2026-05-06 22:15 | 35.99171 | -84.73265 | 35956 ft | 460 kts | 340° |
| 2026-05-06 22:16 | 36.05542 | -84.73961 | 35949 ft | 459 kts | 340° |
| 2026-05-06 22:16 | 36.11910 | -84.74658 | 35947 ft | 459 kts | 340° |
| 2026-05-06 22:17 | 36.18271 | -84.75360 | 35965 ft | 460 kts | 340° |
| 2026-05-06 22:17 | 36.24647 | -84.76062 | 35977 ft | 460 kts | 340° |
| 2026-05-06 22:18 | 36.31035 | -84.76767 | 35967 ft | 461 kts | 340° |
| 2026-05-06 22:18 | 36.37391 | -84.77468 | 35981 ft | 462 kts | 340° |
| 2026-05-06 22:19 | 36.43827 | -84.78079 | 35977 ft | 472 kts | 344° |
| 2026-05-06 22:19 | 36.50443 | -84.77943 | 35975 ft | 478 kts | 347° |
| 2026-05-06 22:20 | 36.57094 | -84.77638 | 35992 ft | 477 kts | 347° |
| 2026-05-06 22:20 | 36.63722 | -84.77386 | 36057 ft | 476 kts | 346° |
| 2026-05-06 22:21 | 36.70347 | -84.77187 | 36002 ft | 475 kts | 345° |
| 2026-05-06 22:21 | 36.76944 | -84.76996 | 36003 ft | 474 kts | 346° |
| 2026-05-06 22:22 | 36.83522 | -84.76809 | 35997 ft | 471 kts | 345° |
| 2026-05-06 22:22 | 36.90073 | -84.76639 | 36030 ft | 470 kts | 345° |
| 2026-05-06 22:23 | 36.96574 | -84.76439 | 36010 ft | 469 kts | 345° |
| 2026-05-06 22:23 | 37.03095 | -84.76251 | 35974 ft | 468 kts | 345° |
| 2026-05-06 22:24 | 37.09599 | -84.76063 | 35978 ft | 467 kts | 345° |
| 2026-05-06 22:24 | 37.16105 | -84.75878 | 36002 ft | 468 kts | 345° |
| 2026-05-06 22:25 | 37.22613 | -84.75689 | 35981 ft | 468 kts | 345° |
| 2026-05-06 22:25 | 37.29114 | -84.75498 | 36003 ft | 467 kts | 345° |
| 2026-05-06 22:26 | 37.35622 | -84.75308 | 36000 ft | 468 kts | 345° |
| 2026-05-06 22:26 | 37.42150 | -84.75088 | 36006 ft | 470 kts | 345° |
| 2026-05-06 22:27 | 37.48689 | -84.74865 | 36009 ft | 470 kts | 345° |
| 2026-05-06 22:27 | 37.55181 | -84.74646 | 36000 ft | 470 kts | 345° |
| 2026-05-06 22:28 | 37.61757 | -84.74426 | 36079 ft | 469 kts | 344° |
| 2026-05-06 22:28 | 37.68254 | -84.74210 | 36012 ft | 471 kts | 344° |
| 2026-05-06 22:29 | 37.74804 | -84.73995 | 35999 ft | 470 kts | 344° |
| 2026-05-06 22:29 | 37.81335 | -84.73797 | 35996 ft | 469 kts | 344° |
| 2026-05-06 22:30 | 37.87872 | -84.73605 | 35990 ft | 470 kts | 344° |
| 2026-05-06 22:30 | 37.94402 | -84.73410 | 35993 ft | 470 kts | 344° |
| 2026-05-06 22:31 | 38.00939 | -84.73211 | 35982 ft | 470 kts | 344° |
| 2026-05-06 22:31 | 38.07482 | -84.73012 | 36051 ft | 470 kts | 343° |
| 2026-05-06 22:32 | 38.13990 | -84.72817 | 35990 ft | 472 kts | 344° |
| 2026-05-06 22:32 | 38.20564 | -84.72616 | 35983 ft | 472 kts | 344° |
| 2026-05-06 22:33 | 38.27143 | -84.72413 | 35985 ft | 473 kts | 344° |
| 2026-05-06 22:33 | 38.33721 | -84.72212 | 35985 ft | 473 kts | 344° |
| 2026-05-06 22:34 | 38.40302 | -84.72010 | 35993 ft | 474 kts | 344° |
| 2026-05-06 22:34 | 38.46806 | -84.72143 | 35984 ft | 451 kts | 334° |
| 2026-05-06 22:35 | 38.49807 | -84.72929 | 35995 ft | 429 kts | 324° |
| 2026-05-06 22:35 | 38.52574 | -84.74178 | 36003 ft | 419 kts | 322° |
| 2026-05-06 22:35 | 38.58034 | -84.76788 | 35996 ft | 420 kts | 321° |
| 2026-05-06 22:36 | 38.63520 | -84.79377 | 35991 ft | 421 kts | 321° |
| 2026-05-06 22:36 | 38.69026 | -84.81936 | 35992 ft | 421 kts | 322° |
| 2026-05-06 22:37 | 38.74506 | -84.84475 | 35999 ft | 421 kts | 322° |
| 2026-05-06 22:37 | 38.80012 | -84.87031 | 36071 ft | 421 kts | 321° |
| 2026-05-06 22:38 | 38.85517 | -84.89593 | 36018 ft | 420 kts | 321° |
| 2026-05-06 22:38 | 38.91000 | -84.92149 | 36016 ft | 418 kts | 321° |
| 2026-05-06 22:39 | 38.96467 | -84.94705 | 36009 ft | 416 kts | 321° |
| 2026-05-06 22:39 | 39.01911 | -84.97259 | 36047 ft | 415 kts | 320° |
| 2026-05-06 22:40 | 39.07326 | -84.99809 | 36022 ft | 414 kts | 320° |
| 2026-05-06 22:40 | 39.12727 | -85.02356 | 36014 ft | 413 kts | 320° |
| 2026-05-06 22:41 | 39.20802 | -85.06172 | 36026 ft | 412 kts | 320° |
| 2026-05-06 22:42 | 39.26180 | -85.08719 | 36074 ft | 412 kts | 320° |
| 2026-05-06 22:42 | 39.31541 | -85.11263 | 36030 ft | 413 kts | 320° |
| 2026-05-06 22:43 | 39.36934 | -85.13821 | 36015 ft | 413 kts | 320° |
| 2026-05-06 22:43 | 39.42334 | -85.16377 | 36024 ft | 413 kts | 320° |
| 2026-05-06 22:44 | 39.46828 | -85.18506 | 36023 ft | 414 kts | 320° |
| 2026-05-06 22:44 | 39.52243 | -85.21078 | 36015 ft | 415 kts | 320° |
| 2026-05-06 22:45 | 39.57668 | -85.23657 | 36032 ft | 415 kts | 320° |
| 2026-05-06 22:45 | 39.63089 | -85.26238 | 36019 ft | 415 kts | 320° |
| 2026-05-06 22:46 | 39.68512 | -85.28825 | 36018 ft | 415 kts | 320° |
| 2026-05-06 22:46 | 39.73932 | -85.31416 | 36062 ft | 415 kts | 320° |
| 2026-05-06 22:47 | 39.79359 | -85.34016 | 36028 ft | 415 kts | 320° |
| 2026-05-06 22:47 | 39.84783 | -85.36616 | 36016 ft | 415 kts | 320° |
| 2026-05-06 22:48 | 39.90197 | -85.39215 | 36015 ft | 414 kts | 320° |
| 2026-05-06 22:48 | 39.95558 | -85.41795 | 36060 ft | 414 kts | 320° |
| 2026-05-06 22:49 | 40.00969 | -85.44407 | 36021 ft | 415 kts | 320° |
| 2026-05-06 22:49 | 40.06388 | -85.47023 | 36019 ft | 415 kts | 320° |
| 2026-05-06 22:50 | 40.11798 | -85.49639 | 36015 ft | 414 kts | 320° |
| 2026-05-06 22:50 | 40.17211 | -85.52261 | 36058 ft | 414 kts | 320° |
| 2026-05-06 22:51 | 40.22617 | -85.54887 | 36031 ft | 414 kts | 320° |
| 2026-05-06 22:51 | 40.28027 | -85.57517 | 36014 ft | 415 kts | 320° |
| 2026-05-06 22:52 | 40.33437 | -85.60151 | 36016 ft | 415 kts | 320° |
| 2026-05-06 22:52 | 40.38846 | -85.62790 | 36020 ft | 414 kts | 320° |
| 2026-05-06 22:53 | 40.44257 | -85.65437 | 36024 ft | 417 kts | 320° |
| 2026-05-06 22:53 | 40.49671 | -85.68069 | 36021 ft | 421 kts | 322° |
| 2026-05-06 22:54 | 40.55339 | -85.70354 | 36023 ft | 429 kts | 325° |
| 2026-05-06 22:54 | 40.61086 | -85.72505 | 36018 ft | 429 kts | 324° |
| 2026-05-06 22:55 | 40.66820 | -85.74703 | 36018 ft | 429 kts | 324° |
| 2026-05-06 22:55 | 40.72553 | -85.76936 | 36013 ft | 429 kts | 324° |
| 2026-05-06 22:56 | 40.78249 | -85.79247 | 36008 ft | 423 kts | 322° |
| 2026-05-06 22:56 | 40.83712 | -85.81861 | 36038 ft | 419 kts | 321° |
| 2026-05-06 22:57 | 40.89188 | -85.84559 | 36021 ft | 420 kts | 321° |
| 2026-05-06 22:57 | 40.94684 | -85.87231 | 36005 ft | 421 kts | 321° |
| 2026-05-06 22:58 | 41.00189 | -85.89888 | 36007 ft | 421 kts | 321° |
| 2026-05-06 22:58 | 41.05695 | -85.92544 | 36007 ft | 421 kts | 321° |
| 2026-05-06 22:59 | 41.11216 | -85.95217 | 36019 ft | 423 kts | 322° |
| 2026-05-06 22:59 | 41.16752 | -85.97899 | 36003 ft | 424 kts | 322° |
| 2026-05-06 23:00 | 41.22296 | -86.00593 | 35997 ft | 423 kts | 320° |
| 2026-05-06 23:00 | 41.24769 | -86.02368 | 35994 ft | 384 kts | 304° |
| 2026-05-06 23:00 | 41.26573 | -86.04787 | 36004 ft | 359 kts | 294° |
| 2026-05-06 23:00 | 41.27958 | -86.07477 | 36010 ft | 348 kts | 287° |
| 2026-05-06 23:01 | 41.28992 | -86.10329 | 36023 ft | 337 kts | 279° |
| 2026-05-06 23:01 | 41.29929 | -86.16295 | 36014 ft | 331 kts | 272° |
| 2026-05-06 23:02 | 41.30603 | -86.22424 | 35519 ft | 340 kts | 272° |
| 2026-05-06 23:02 | 41.30950 | -86.25538 | 34939 ft | 337 kts | 272° |
| 2026-05-06 23:02 | 41.31300 | -86.28602 | 34374 ft | 333 kts | 272° |
| 2026-05-06 23:02 | 41.31650 | -86.31643 | 33807 ft | 330 kts | 272° |
| 2026-05-06 23:03 | 41.32000 | -86.34681 | 32970 ft | 332 kts | 272° |
| 2026-05-06 23:03 | 41.32350 | -86.37706 | 32267 ft | 331 kts | 271° |
| 2026-05-06 23:03 | 41.32698 | -86.40718 | 31593 ft | 330 kts | 271° |
| 2026-05-06 23:03 | 41.33046 | -86.43732 | 30926 ft | 329 kts | 271° |
| 2026-05-06 23:04 | 41.33392 | -86.46747 | 30238 ft | 329 kts | 271° |
| 2026-05-06 23:04 | 41.33738 | -86.49763 | 29411 ft | 330 kts | 272° |
| 2026-05-06 23:04 | 41.34227 | -86.52765 | 28611 ft | 334 kts | 277° |
| 2026-05-06 23:04 | 41.34934 | -86.55693 | 27815 ft | 340 kts | 281° |
| 2026-05-06 23:05 | 41.35891 | -86.58666 | 26984 ft | 363 kts | 287° |
| 2026-05-06 23:05 | 41.37090 | -86.61817 | 26092 ft | 391 kts | 289° |
| 2026-05-06 23:05 | 41.38473 | -86.64960 | 25399 ft | 404 kts | 298° |
| 2026-05-06 23:05 | 41.40341 | -86.67794 | 24725 ft | 409 kts | 306° |
| 2026-05-06 23:06 | 41.42452 | -86.70352 | 23979 ft | 414 kts | 312° |
| 2026-05-06 23:06 | 41.44906 | -86.72544 | 23175 ft | 423 kts | 321° |
| 2026-05-06 23:06 | 41.47515 | -86.74271 | 22465 ft | 426 kts | 328° |
| 2026-05-06 23:06 | 41.50351 | -86.75529 | 21799 ft | 431 kts | 336° |
| 2026-05-06 23:07 | 41.53232 | -86.76558 | 21195 ft | 426 kts | 336° |
| 2026-05-06 23:07 | 41.56090 | -86.77579 | 20557 ft | 424 kts | 336° |
| 2026-05-06 23:07 | 41.58952 | -86.78620 | 19931 ft | 428 kts | 336° |
| 2026-05-06 23:07 | 41.61809 | -86.79668 | 19303 ft | 424 kts | 336° |
| 2026-05-06 23:08 | 41.64636 | -86.80709 | 18698 ft | 419 kts | 336° |
| 2026-05-06 23:08 | 41.67435 | -86.81745 | 18044 ft | 415 kts | 336° |
| 2026-05-06 23:08 | 41.70208 | -86.82776 | 17362 ft | 411 kts | 336° |
| 2026-05-06 23:08 | 41.72944 | -86.83795 | 16744 ft | 406 kts | 336° |
| 2026-05-06 23:09 | 41.75648 | -86.84803 | 16123 ft | 402 kts | 336° |
| 2026-05-06 23:09 | 41.78340 | -86.85809 | 15409 ft | 400 kts | 336° |
| 2026-05-06 23:09 | 41.81007 | -86.86807 | 14799 ft | 396 kts | 336° |
| 2026-05-06 23:09 | 41.83643 | -86.87792 | 14203 ft | 391 kts | 337° |
| 2026-05-06 23:10 | 41.86250 | -86.88767 | 13599 ft | 387 kts | 337° |
| 2026-05-06 23:10 | 41.88838 | -86.89735 | 12963 ft | 383 kts | 338° |
| 2026-05-06 23:10 | 41.91284 | -86.90899 | 12327 ft | 371 kts | 325° |
| 2026-05-06 23:10 | 41.93209 | -86.93032 | 11758 ft | 354 kts | 305° |
| 2026-05-06 23:11 | 41.94538 | -86.95751 | 11329 ft | 342 kts | 294° |
| 2026-05-06 23:11 | 41.95302 | -86.98714 | 11090 ft | 331 kts | 279° |
| 2026-05-06 23:11 | 41.95671 | -87.01711 | 10932 ft | 319 kts | 277° |
| 2026-05-06 23:11 | 41.95970 | -87.04604 | 10783 ft | 307 kts | 276° |
| 2026-05-06 23:12 | 41.96252 | -87.07391 | 10641 ft | 296 kts | 276° |
| 2026-05-06 23:12 | 41.96528 | -87.10081 | 10510 ft | 285 kts | 276° |
| 2026-05-06 23:12 | 41.96800 | -87.12672 | 10396 ft | 275 kts | 277° |
| 2026-05-06 23:12 | 41.97067 | -87.15178 | 10282 ft | 266 kts | 277° |
| 2026-05-06 23:13 | 41.97326 | -87.17595 | 10175 ft | 257 kts | 277° |
| 2026-05-06 23:13 | 41.97578 | -87.19930 | 10066 ft | 248 kts | 277° |
| 2026-05-06 23:13 | 41.97823 | -87.22193 | 9907 ft | 243 kts | 277° |
| 2026-05-06 23:13 | 41.98066 | -87.24457 | 9633 ft | 245 kts | 277° |
| 2026-05-06 23:14 | 41.98310 | -87.26727 | 9366 ft | 246 kts | 277° |
| 2026-05-06 23:14 | 41.98552 | -87.28971 | 9083 ft | 244 kts | 277° |
| 2026-05-06 23:14 | 41.98740 | -87.31234 | 8771 ft | 243 kts | 271° |
| 2026-05-06 23:14 | 41.98752 | -87.33510 | 8472 ft | 245 kts | 270° |
| 2026-05-06 23:15 | 41.98743 | -87.35805 | 8148 ft | 246 kts | 270° |
| 2026-05-06 23:15 | 41.98736 | -87.38099 | 7822 ft | 246 kts | 270° |
| 2026-05-06 23:15 | 41.98735 | -87.40365 | 7504 ft | 246 kts | 270° |
| 2026-05-06 23:15 | 41.98740 | -87.42665 | 7181 ft | 246 kts | 271° |
| 2026-05-06 23:16 | 41.98747 | -87.44944 | 6925 ft | 245 kts | 271° |
| 2026-05-06 23:16 | 41.98755 | -87.47261 | 6556 ft | 248 kts | 271° |
| 2026-05-06 23:16 | 41.98763 | -87.49552 | 6213 ft | 248 kts | 271° |
| 2026-05-06 23:16 | 41.98834 | -87.51837 | 6121 ft | 237 kts | 273° |
| 2026-05-06 23:17 | 41.98884 | -87.54028 | 5850 ft | 226 kts | 272° |
| 2026-05-06 23:17 | 41.98895 | -87.56058 | 5574 ft | 217 kts | 271° |
| 2026-05-06 23:17 | 41.98892 | -87.58055 | 5298 ft | 210 kts | 271° |
| 2026-05-06 23:17 | 41.98886 | -87.59991 | 5011 ft | 204 kts | 271° |
| 2026-05-06 23:18 | 41.98880 | -87.61873 | 4728 ft | 199 kts | 271° |
| 2026-05-06 23:18 | 41.98874 | -87.63686 | 4453 ft | 188 kts | 271° |
| 2026-05-06 23:18 | 41.98869 | -87.65373 | 4205 ft | 174 kts | 271° |
| 2026-05-06 23:18 | 41.98864 | -87.66929 | 3968 ft | 160 kts | 271° |
| 2026-05-06 23:19 | 41.98861 | -87.68343 | 3772 ft | 144 kts | 271° |
| 2026-05-06 23:19 | 41.98858 | -87.69660 | 3577 ft | 139 kts | 271° |
| 2026-05-06 23:19 | 41.98856 | -87.70972 | 3382 ft | 142 kts | 271° |
| 2026-05-06 23:19 | 41.98852 | -87.72286 | 3190 ft | 141 kts | 272° |
| 2026-05-06 23:20 | 41.98850 | -87.73601 | 3000 ft | 140 kts | 272° |
| 2026-05-06 23:20 | 41.98847 | -87.74901 | 2801 ft | 138 kts | 272° |
| 2026-05-06 23:20 | 41.98846 | -87.76197 | 2623 ft | 139 kts | 272° |
| 2026-05-06 23:20 | 41.98843 | -87.77504 | 2424 ft | 140 kts | 272° |
| 2026-05-06 23:21 | 41.98841 | -87.78805 | 2227 ft | 138 kts | 272° |
| 2026-05-06 23:21 | 41.98839 | -87.80100 | 2037 ft | 139 kts | 272° |
| 2026-05-06 23:21 | 41.98837 | -87.81405 | 1846 ft | 139 kts | 272° |
| 2026-05-06 23:21 | 41.98836 | -87.82697 | 1660 ft | 139 kts | 272° |
| 2026-05-06 23:22 | 41.98836 | -87.83992 | 1458 ft | 141 kts | 272° |
| 2026-05-06 23:22 | 41.98832 | -87.85311 | 1257 ft | 139 kts | 270° |
| 2026-05-06 23:22 | 41.98834 | -87.86589 | 1083 ft | 134 kts | 271° |
| 2026-05-06 23:22 | 41.98831 | -87.87854 | 882 ft | 137 kts | 271° |
| 2026-05-06 23:23 | 41.98830 | -87.89127 | 702 ft | 135 kts | 271° |
| 2026-05-06 23:23 | 41.98832 | -87.90305 | 669 ft | 113 kts | 269° |
| 2026-05-06 23:23 | 41.98831 | -87.91158 | 668 ft | 69 kts | 270° |
| 2026-05-06 23:23 | 41.98831 | -87.91625 | 667 ft | 40 kts | 269° |
| 2026-05-06 23:24 | 41.98798 | -87.91849 | 665 ft | 0 kts | 234° |